Time;durP1;ratioP1;P1;durP2;ratioP2;P2;SDS_P1;SDS_P2;PMS_P1;PMS_P2;Temp;Humidity;BMP_temperature;BMP_pressure;BME280_temperature;BME280_humidity;BME280_pressure;Samples;Min_cycle;Max_cycle;Signal;HPM_P1;HPM_P2
2022/05/27 00:01:54;;;;;;;3.73;2.17;;;16.00;99.90;;;;;;5065978;28;20419;-38
2022/05/27 00:04:19;;;;;;;2.53;2.27;;;16.00;99.90;;;;;;5065711;28;20207;-38
2022/05/27 00:06:45;;;;;;;2.47;1.90;;;16.00;99.90;;;;;;5065316;28;20231;-38
2022/05/27 00:09:10;;;;;;;2.57;2.37;;;16.10;99.90;;;;;;5071308;28;20200;-39
2022/05/27 00:11:36;;;;;;;2.43;2.20;;;16.00;99.90;;;;;;5062902;28;20197;-38
2022/05/27 00:14:02;;;;;;;3.00;2.10;;;15.80;99.90;;;;;;5054524;28;20280;-38
2022/05/27 00:16:28;;;;;;;2.20;2.00;;;15.80;99.90;;;;;;5059110;28;20434;-38
2022/05/27 00:18:54;;;;;;;2.63;2.23;;;15.70;99.90;;;;;;5071486;28;20306;-38
2022/05/27 00:21:21;;;;;;;2.73;2.30;;;15.80;99.90;;;;;;5070045;28;20189;-38
2022/05/27 00:23:47;;;;;;;2.70;2.47;;;15.80;99.90;;;;;;5072189;28;20845;-38
2022/05/27 00:26:13;;;;;;;2.10;1.90;;;15.70;99.90;;;;;;5066121;28;20444;-38
2022/05/27 00:28:39;;;;;;;2.13;1.87;;;15.70;99.90;;;;;;5054019;28;20919;-38
2022/05/27 00:31:05;;;;;;;3.60;2.83;;;15.60;99.90;;;;;;5056900;28;20196;-38
2022/05/27 00:33:33;;;;;;;2.70;2.50;;;15.70;99.90;;;;;;5071775;28;20878;-38
2022/05/27 00:35:58;;;;;;;5.70;3.00;;;15.60;99.90;;;;;;5060539;28;20434;-38
2022/05/27 00:38:24;;;;;;;5.00;2.47;;;15.60;99.90;;;;;;5071062;28;20427;-38
2022/05/27 00:40:54;;;;;;;2.60;2.40;;;15.60;99.90;;;;;;5069848;28;20212;-38
2022/05/27 00:43:21;;;;;;;3.13;2.83;;;15.60;99.90;;;;;;5053220;28;20633;-38
2022/05/27 00:45:57;;;;;;;4.33;3.33;;;15.50;99.90;;;;;;5061188;28;20488;-39
2022/05/27 00:48:24;;;;;;;4.40;2.60;;;15.50;99.90;;;;;;5070929;28;20825;-38
2022/05/27 00:50:50;;;;;;;3.13;2.83;;;15.40;99.90;;;;;;5064272;28;20926;-38
2022/05/27 00:53:27;;;;;;;2.80;2.60;;;15.40;99.90;;;;;;5070006;28;20431;-38
2022/05/27 00:56:00;;;;;;;4.33;3.23;;;15.40;99.90;;;;;;5070485;28;20438;-38
2022/05/27 00:58:45;;;;;;;3.37;3.07;;;15.40;99.90;;;;;;5054502;28;20427;-38
2022/05/27 01:01:13;;;;;;;3.50;2.63;;;15.30;99.90;;;;;;5056935;28;20416;-38
2022/05/27 01:03:40;;;;;;;2.93;2.60;;;15.30;99.90;;;;;;5069161;28;20565;-38
2022/05/27 01:06:06;;;;;;;4.40;2.83;;;15.30;99.90;;;;;;5068017;28;20426;-38
2022/05/27 01:08:32;;;;;;;4.00;2.90;;;15.20;99.90;;;;;;5070531;28;20522;-40
2022/05/27 01:11:07;;;;;;;5.83;2.87;;;15.10;99.90;;;;;;5070199;28;20427;-38
2022/05/27 01:13:55;;;;;;;3.53;2.70;;;15.20;99.90;;;;;;5054330;28;20505;-38
2022/05/27 01:16:42;;;;;;;3.30;2.70;;;15.30;99.90;;;;;;5059316;28;20416;-38
2022/05/27 01:22:37;;;;;;;5.60;3.20;;;15.10;99.90;;;;;;5062543;28;20443;-38
2022/05/27 01:25:30;;;;;;;4.93;3.70;;;15.20;99.90;;;;;;5070984;28;20425;-38
2022/05/27 01:28:12;;;;;;;3.97;3.57;;;15.20;99.90;;;;;;5056022;28;20431;-39
2022/05/27 01:30:49;;;;;;;6.00;3.50;;;15.20;99.90;;;;;;5044330;28;20420;-38
2022/05/27 01:33:43;;;;;;;3.33;2.57;;;15.00;99.90;;;;;;5070922;28;20419;-38
2022/05/27 01:36:31;;;;;;;3.87;3.27;;;15.20;99.90;;;;;;5063229;28;20494;-39
2022/05/27 01:39:34;;;;;;;4.80;2.93;;;15.10;99.90;;;;;;5070454;28;20455;-38
2022/05/27 01:42:18;;;;;;;4.37;3.20;;;15.00;99.90;;;;;;5063145;28;20426;-39
2022/05/27 01:45:04;;;;;;;4.10;3.20;;;15.00;99.90;;;;;;5048318;28;20455;-38
2022/05/27 01:47:45;;;;;;;2.50;2.30;;;15.00;99.90;;;;;;5056086;28;20893;-38
2022/05/27 01:50:46;;;;;;;4.83;3.20;;;15.00;99.90;;;;;;5066974;28;20424;-38
2022/05/27 01:53:24;;;;;;;3.87;3.47;;;15.10;99.90;;;;;;5064373;28;20438;-38
2022/05/27 01:55:55;;;;;;;5.17;4.07;;;15.10;99.90;;;;;;5070192;28;20422;-38
2022/05/27 01:58:52;;;;;;;5.20;3.93;;;15.00;99.90;;;;;;5052270;28;20489;-38
2022/05/27 02:01:24;;;;;;;5.40;3.80;;;15.10;99.90;;;;;;5050541;28;20479;-38
2022/05/27 02:04:01;;;;;;;3.93;3.63;;;15.00;99.90;;;;;;5069791;28;20771;-39
2022/05/27 02:06:39;;;;;;;4.60;3.83;;;14.90;99.90;;;;;;5058232;28;20408;-38
2022/05/27 02:09:28;;;;;;;3.20;2.90;;;15.00;99.90;;;;;;5069974;28;20450;-38
2022/05/27 02:12:02;;;;;;;5.30;4.33;;;15.10;99.90;;;;;;5065557;28;20428;-39
2022/05/27 02:14:57;;;;;;;5.50;4.00;;;15.00;99.90;;;;;;5053152;28;20448;-38
2022/05/27 02:17:27;;;;;;;5.60;4.23;;;14.90;99.90;;;;;;5057607;28;20428;-38
2022/05/27 02:20:01;;;;;;;6.07;4.40;;;14.70;99.90;;;;;;5069751;28;21019;-38
2022/05/27 02:22:31;;;;;;;7.70;4.70;;;14.70;99.90;;;;;;5062320;28;20417;-38
2022/05/27 02:25:28;;;;;;;8.67;4.53;;;14.70;99.90;;;;;;5069640;28;20941;-38
2022/05/27 02:28:06;;;;;;;7.37;5.07;;;14.70;99.90;;;;;;5051923;28;20458;-38
2022/05/27 02:30:35;;;;;;;6.53;4.80;;;14.60;99.90;;;;;;5051595;28;20419;-38
2022/05/27 02:36:06;;;;;;;9.00;8.03;;;14.60;99.90;;;;;;5065992;28;20498;-39
2022/05/27 02:38:32;;;;;;;11.90;10.57;;;14.70;99.90;;;;;;5068677;28;20776;-38
2022/05/27 02:41:03;;;;;;;11.03;8.33;;;14.70;99.90;;;;;;5069604;28;20480;-38
2022/05/27 02:44:18;;;;;;;9.70;7.10;;;14.70;99.90;;;;;;5055532;28;20432;-39
2022/05/27 02:47:25;;;;;;;10.53;5.93;;;14.70;99.90;;;;;;5046994;28;20989;-38
2022/05/27 02:49:50;;;;;;;7.73;5.50;;;14.80;99.90;;;;;;5054279;28;20435;-38
2022/05/27 02:52:44;;;;;;;6.27;5.70;;;14.70;99.90;;;;;;5056787;28;20936;-38
2022/05/27 02:55:32;;;;;;;7.73;5.07;;;14.60;99.90;;;;;;5067192;28;20180;-38
2022/05/27 02:58:02;;;;;;;6.23;5.40;;;14.60;99.90;;;;;;5056571;28;20482;-39
2022/05/27 03:00:32;;;;;;;5.97;5.37;;;14.50;99.90;;;;;;5053044;28;20466;-39
2022/05/27 03:02:59;;;;;;;6.73;4.70;;;14.50;99.90;;;;;;5062156;28;20529;-38
2022/05/27 03:05:54;;;;;;;6.27;4.20;;;14.70;99.90;;;;;;5068283;28;20514;-38
2022/05/27 03:08:41;;;;;;;4.73;4.20;;;14.60;99.90;;;;;;5065407;28;20210;-38
2022/05/27 03:11:18;;;;;;;7.30;4.77;;;14.50;99.90;;;;;;5069339;28;20789;-39
2022/05/27 03:13:57;;;;;;;6.20;4.27;;;14.40;99.90;;;;;;5055060;28;20428;-38
2022/05/27 03:16:46;;;;;;;6.30;4.60;;;14.30;99.90;;;;;;5057145;28;20890;-38
2022/05/27 03:19:33;;;;;;;7.03;4.63;;;14.30;99.90;;;;;;5061576;28;20471;-39
2022/05/27 03:22:17;;;;;;;4.90;3.93;;;14.20;99.90;;;;;;5065307;28;20423;-39
2022/05/27 03:25:14;;;;;;;5.33;4.37;;;14.20;99.90;;;;;;5069090;28;20427;-38
2022/05/27 03:28:05;;;;;;;7.70;5.03;;;14.20;99.90;;;;;;5052875;28;20479;-38
2022/05/27 03:30:36;;;;;;;5.97;5.13;;;14.10;99.90;;;;;;5049423;28;20455;-38
2022/05/27 03:33:22;;;;;;;5.40;4.90;;;13.90;99.90;;;;;;5060015;28;20786;-38
2022/05/27 03:35:54;;;;;;;7.33;5.40;;;14.00;99.90;;;;;;5066733;28;20488;-38
2022/05/27 03:38:30;;;;;;;5.50;4.70;;;14.10;99.90;;;;;;5058324;28;20458;-38
2022/05/27 03:41:09;;;;;;;5.30;4.80;;;14.10;99.90;;;;;;5068732;28;20510;-38
2022/05/27 03:43:36;;;;;;;5.53;4.47;;;14.30;99.90;;;;;;5056892;28;20428;-38
2022/05/27 03:46:02;;;;;;;5.40;4.90;;;14.30;99.90;;;;;;5064054;28;20416;-39
2022/05/27 03:48:32;;;;;;;5.13;4.73;;;14.40;99.90;;;;;;5066715;28;20480;-39
2022/05/27 03:51:04;;;;;;;5.50;5.00;;;14.40;99.90;;;;;;5044576;28;20447;-39
2022/05/27 03:56:14;;;;;;;5.50;3.90;;;14.30;99.90;;;;;;5072589;28;20445;-38
2022/05/27 03:58:40;;;;;;;4.67;4.27;;;14.10;99.90;;;;;;5059854;28;20428;-38
2022/05/27 04:01:06;;;;;;;4.57;4.17;;;14.20;99.90;;;;;;5055331;28;20192;-39
2022/05/27 04:03:32;;;;;;;3.93;3.60;;;14.00;99.90;;;;;;5056658;28;20193;-39
2022/05/27 04:05:57;;;;;;;4.80;3.87;;;14.00;99.90;;;;;;5070444;28;20427;-39
2022/05/27 04:08:23;;;;;;;6.47;3.80;;;14.00;99.90;;;;;;5068886;28;20208;-39
2022/05/27 04:10:49;;;;;;;4.57;3.23;;;14.00;99.90;;;;;;5072531;28;20208;-39
2022/05/27 04:13:14;;;;;;;3.77;3.47;;;13.80;99.90;;;;;;5065844;28;20246;-38
2022/05/27 04:15:40;;;;;;;4.43;3.30;;;13.80;99.90;;;;;;5058244;28;20190;-38
2022/05/27 04:18:06;;;;;;;3.90;3.50;;;13.70;99.90;;;;;;5055399;28;20193;-38
2022/05/27 04:20:32;;;;;;;6.13;3.33;;;13.70;99.90;;;;;;5072066;28;20248;-38
2022/05/27 04:22:57;;;;;;;3.80;3.10;;;13.70;99.90;;;;;;5070731;28;20477;-39
2022/05/27 04:25:23;;;;;;;4.67;3.00;;;13.60;99.90;;;;;;5071072;28;20189;-39
2022/05/27 04:27:50;;;;;;;4.30;3.40;;;13.70;99.90;;;;;;5053965;28;20538;-39
2022/05/27 04:30:16;;;;;;;4.10;3.17;;;13.70;99.90;;;;;;5053460;28;20827;-42
2022/05/27 04:32:42;;;;;;;3.57;3.27;;;13.70;99.90;;;;;;5059473;28;20912;-39
2022/05/27 04:35:09;;;;;;;4.37;2.87;;;13.70;99.90;;;;;;5072078;28;20467;-38
2022/05/27 04:37:36;;;;;;;3.40;2.97;;;13.70;99.90;;;;;;5060506;28;20488;-39
2022/05/27 04:40:03;;;;;;;3.60;3.30;;;13.70;99.90;;;;;;5070546;28;20501;-39
2022/05/27 04:42:29;;;;;;;3.83;3.30;;;13.70;99.90;;;;;;5070365;28;20427;-39
2022/05/27 04:44:55;;;;;;;3.20;2.90;;;13.70;99.90;;;;;;5055375;28;20436;-38
2022/05/27 04:47:21;;;;;;;4.30;3.90;;;13.70;99.90;;;;;;5061572;28;20242;-38
2022/05/27 04:49:56;;;;;;;4.53;3.50;;;13.60;99.90;;;;;;5071467;28;20439;-40
2022/05/27 04:52:21;;;;;;;4.10;3.70;;;13.70;99.90;;;;;;5065210;28;20196;-39
2022/05/27 04:54:48;;;;;;;4.03;3.67;;;13.60;99.90;;;;;;5069642;28;21003;-39
2022/05/27 04:57:17;;;;;;;6.00;4.60;;;13.60;99.90;;;;;;5070724;28;20217;-39
2022/05/27 04:59:46;;;;;;;4.40;4.00;;;13.60;99.90;;;;;;5056604;28;20468;-39
2022/05/27 05:02:14;;;;;;;4.80;4.30;;;13.60;99.90;;;;;;5056307;28;20427;-38
2022/05/27 05:04:39;;;;;;;3.83;3.40;;;13.60;99.90;;;;;;5051575;28;20428;-38
2022/05/27 05:07:08;;;;;;;3.40;3.10;;;13.70;99.90;;;;;;5068385;28;20436;-39
2022/05/27 05:09:39;;;;;;;6.00;3.40;;;13.80;99.90;;;;;;5071405;28;20193;-39
2022/05/27 05:12:06;;;;;;;4.43;3.90;;;13.80;99.90;;;;;;5071419;28;20465;-39
2022/05/27 05:14:32;;;;;;;4.07;3.77;;;13.90;99.90;;;;;;5056233;28;20986;-39
2022/05/27 05:16:58;;;;;;;4.23;3.43;;;13.90;99.90;;;;;;5054892;28;20464;-38
2022/05/27 05:19:24;;;;;;;4.20;3.60;;;14.00;99.90;;;;;;5064928;28;20520;-38
2022/05/27 05:21:49;;;;;;;4.83;4.20;;;14.00;99.90;;;;;;5067254;28;20201;-38
2022/05/27 05:24:15;;;;;;;4.50;3.20;;;13.80;99.90;;;;;;5064832;28;20196;-39
2022/05/27 05:26:41;;;;;;;6.80;3.80;;;13.70;99.90;;;;;;5063220;28;20193;-38
2022/05/27 05:29:06;;;;;;;4.30;3.90;;;13.80;99.90;;;;;;5055334;28;20315;-38
2022/05/27 05:31:33;;;;;;;5.10;4.00;;;13.70;99.90;;;;;;5056108;28;20221;-38
2022/05/27 05:33:59;;;;;;;3.50;3.20;;;13.80;99.90;;;;;;5064919;28;20542;-39
2022/05/27 05:36:29;;;;;;;5.90;4.33;;;13.80;99.90;;;;;;5069742;28;20463;-38
2022/05/27 05:38:56;;;;;;;5.37;4.40;;;13.70;99.90;;;;;;5065061;28;20524;-38
2022/05/27 05:41:31;;;;;;;4.67;4.17;;;13.70;99.90;;;;;;5070873;28;20916;-38
2022/05/27 05:43:57;;;;;;;8.10;4.00;;;13.70;99.90;;;;;;5064399;28;20439;-38
2022/05/27 05:46:24;;;;;;;5.40;4.70;;;13.70;99.90;;;;;;5059883;28;20427;-38
2022/05/27 05:48:50;;;;;;;13.40;4.90;;;13.80;99.90;;;;;;5059112;28;20181;-39
2022/05/27 05:51:17;;;;;;;5.70;4.57;;;13.80;99.90;;;;;;5070691;28;20425;-40
2022/05/27 05:53:43;;;;;;;7.13;4.47;;;13.60;99.90;;;;;;5068364;28;20191;-39
2022/05/27 05:56:09;;;;;;;6.97;4.70;;;13.70;99.90;;;;;;5070324;28;20443;-38
2022/05/27 05:58:35;;;;;;;5.00;4.37;;;13.70;99.90;;;;;;5065414;28;20777;-38
2022/05/27 06:01:00;;;;;;;5.40;4.63;;;13.70;99.90;;;;;;5053409;28;20428;-39
2022/05/27 06:03:26;;;;;;;4.90;4.17;;;13.80;99.90;;;;;;5059561;28;20427;-38
2022/05/27 06:05:52;;;;;;;5.23;4.57;;;13.90;99.90;;;;;;5070026;28;20196;-39
2022/05/27 06:08:18;;;;;;;5.77;5.03;;;14.10;99.90;;;;;;5059230;28;20781;-38
2022/05/27 06:10:48;;;;;;;6.80;5.10;;;14.00;99.90;;;;;;5070115;28;20967;-39
2022/05/27 06:13:13;;;;;;;5.10;4.50;;;14.10;99.90;;;;;;5069870;28;20691;-39
2022/05/27 06:15:39;;;;;;;7.10;4.87;;;14.10;99.90;;;;;;5056015;28;20440;-39
2022/05/27 06:18:06;;;;;;;6.40;4.90;;;14.00;99.90;;;;;;5054361;28;20200;-39
2022/05/27 06:20:33;;;;;;;5.90;4.27;;;14.10;99.90;;;;;;5069856;28;20466;-39
2022/05/27 06:23:02;;;;;;;11.63;5.30;;;14.20;99.90;;;;;;5063740;28;20424;-39
2022/05/27 06:25:27;;;;;;;5.90;4.70;;;14.30;99.90;;;;;;5069922;28;20435;-41
2022/05/27 06:34:23;;;;;;;6.90;4.87;;;14.40;99.90;;;;;;5037575;28;20490;-38
2022/05/27 06:36:07;;;;;;;6.03;5.40;;;14.50;99.90;;;;;;5067757;28;20922;-38
2022/05/27 06:38:33;;;;;;;5.40;4.33;;;14.30;99.90;;;;;;5067463;28;20427;-39
2022/05/27 06:40:58;;;;;;;6.30;5.00;;;14.40;99.90;;;;;;5068145;28;20276;-39
2022/05/27 06:43:24;;;;;;;9.23;4.97;;;14.40;99.90;;;;;;5068419;28;20216;-39
2022/05/27 06:45:49;;;;;;;5.40;4.40;;;14.40;99.90;;;;;;5053231;28;20197;-39
2022/05/27 06:48:15;;;;;;;7.27;5.20;;;14.50;99.90;;;;;;5052364;28;20604;-39
2022/05/27 06:50:41;;;;;;;5.97;5.30;;;14.60;99.90;;;;;;5067745;28;20185;-39
2022/05/27 06:53:06;;;;;;;6.87;5.00;;;14.60;99.90;;;;;;5059228;28;20186;-38
2022/05/27 06:55:32;;;;;;;5.67;4.37;;;14.50;99.90;;;;;;5067699;28;20193;-39
2022/05/27 06:57:58;;;;;;;5.10;4.60;;;14.70;99.90;;;;;;5068597;28;20738;-38
2022/05/27 07:00:23;;;;;;;6.70;5.77;;;14.90;99.90;;;;;;5057247;28;20220;-39
2022/05/27 07:02:49;;;;;;;6.80;6.20;;;15.00;99.90;;;;;;5055644;28;20185;-38
2022/05/27 07:05:14;;;;;;;6.70;6.07;;;15.00;99.90;;;;;;5067233;28;20224;-38
2022/05/27 07:07:40;;;;;;;6.40;5.40;;;15.00;99.90;;;;;;5064134;28;20376;-38
2022/05/27 07:10:06;;;;;;;6.77;6.03;;;15.20;99.90;;;;;;5067127;28;20188;-41
2022/05/27 07:12:32;;;;;;;6.30;5.57;;;15.20;99.90;;;;;;5069102;28;20197;-39
2022/05/27 07:14:58;;;;;;;7.13;5.83;;;15.20;99.90;;;;;;5060435;28;20837;-40
2022/05/27 07:17:23;;;;;;;9.43;6.30;;;15.20;99.90;;;;;;5048765;28;20621;-39
2022/05/27 07:19:49;;;;;;;6.77;5.37;;;15.30;99.90;;;;;;5054744;28;20258;-40
2022/05/27 07:22:15;;;;;;;5.93;4.60;;;15.40;99.90;;;;;;5068868;28;20211;-39
2022/05/27 07:24:42;;;;;;;6.57;5.20;;;15.60;99.90;;;;;;5065811;28;20177;-39
2022/05/27 07:27:08;;;;;;;10.57;6.57;;;15.60;99.90;;;;;;5057268;28;20428;-38
2022/05/27 07:29:35;;;;;;;9.83;6.17;;;15.40;99.90;;;;;;5060688;28;20440;-39
2022/05/27 07:32:01;;;;;;;6.80;5.07;;;15.50;99.90;;;;;;5050835;28;20424;-39
2022/05/27 07:34:27;;;;;;;5.73;5.17;;;15.70;99.90;;;;;;5058754;28;20538;-39
2022/05/27 07:36:53;;;;;;;8.97;5.70;;;15.90;99.90;;;;;;5068360;28;20430;-39
2022/05/27 07:39:19;;;;;;;8.07;5.57;;;16.10;99.90;;;;;;5055942;28;20467;-39
2022/05/27 07:41:44;;;;;;;7.00;5.50;;;16.10;99.90;;;;;;5069096;28;20412;-39
2022/05/27 07:44:10;;;;;;;8.70;5.70;;;16.20;99.90;;;;;;5065513;28;20189;-39
2022/05/27 07:46:37;;;;;;;6.20;5.60;;;16.20;99.90;;;;;;5053201;28;20206;-39
2022/05/27 07:49:04;;;;;;;8.03;5.60;;;16.10;99.90;;;;;;5057354;28;20212;-39
2022/05/27 07:51:30;;;;;;;8.77;5.63;;;16.10;99.90;;;;;;5067471;28;20455;-39
2022/05/27 07:53:56;;;;;;;7.00;6.17;;;16.00;99.90;;;;;;5058471;28;20461;-39
2022/05/27 07:56:23;;;;;;;8.43;5.73;;;16.10;99.90;;;;;;5068737;28;20451;-39
2022/05/27 07:58:49;;;;;;;10.00;6.30;;;16.10;99.90;;;;;;5050290;28;20197;-39
2022/05/27 08:01:17;;;;;;;10.73;6.83;;;16.30;99.90;;;;;;5050011;28;20436;-39
2022/05/27 08:03:43;;;;;;;9.53;5.90;;;16.40;99.90;;;;;;5053311;28;20196;-39
2022/05/27 08:06:09;;;;;;;10.50;5.80;;;16.50;99.90;;;;;;5059201;28;20424;-39
2022/05/27 08:08:34;;;;;;;7.67;5.57;;;16.60;99.90;;;;;;5063074;28;21148;-39
2022/05/27 08:11:00;;;;;;;5.87;4.80;;;16.60;99.90;;;;;;5068657;28;20427;-39
2022/05/27 08:13:26;;;;;;;6.83;5.37;;;16.60;99.90;;;;;;5068588;28;20189;-39
2022/05/27 08:15:53;;;;;;;8.63;6.20;;;16.50;99.90;;;;;;5056948;28;20809;-39
2022/05/27 08:18:22;;;;;;;6.03;5.43;;;16.50;99.90;;;;;;5058907;28;20200;-39
2022/05/27 08:20:48;;;;;;;6.17;5.57;;;16.60;99.90;;;;;;5059012;28;20999;-39
2022/05/27 08:23:13;;;;;;;10.23;7.10;;;16.60;99.90;;;;;;5067155;28;20419;-39
2022/05/27 08:25:39;;;;;;;10.10;6.47;;;16.70;99.90;;;;;;5068360;28;20181;-38
2022/05/27 08:28:06;;;;;;;10.40;7.37;;;16.90;99.90;;;;;;5054191;28;20476;-39
2022/05/27 08:30:35;;;;;;;10.20;7.00;;;16.90;99.90;;;;;;5060183;28;20636;-38
2022/05/27 08:33:01;;;;;;;12.33;8.63;;;17.00;99.90;;;;;;5062257;28;20501;-38
2022/05/27 08:38:34;;;;;;;11.97;9.20;;;16.60;99.90;;;;;;5051002;28;20440;-38
2022/05/27 08:41:08;;;;;;;9.23;8.40;;;16.40;99.90;;;;;;5069915;28;20462;-39
2022/05/27 08:43:34;;;;;;;10.47;9.10;;;16.40;99.90;;;;;;5072008;28;20792;-39
2022/05/27 08:46:28;;;;;;;10.10;8.60;;;16.50;99.90;;;;;;5057900;28;20440;-38
2022/05/27 08:48:58;;;;;;;10.53;8.80;;;16.70;99.90;;;;;;5051172;28;20423;-39
2022/05/27 08:52:19;;;;;;;8.47;7.63;;;16.90;99.90;;;;;;5062121;28;20415;-38
2022/05/27 08:59:26;;;;;;;8.57;7.70;;;16.90;99.90;;;;;;5061488;28;20445;-38
2022/05/27 09:00:48;;;;;;;9.47;7.77;;;16.70;99.90;;;;;;5061549;28;20475;-38
2022/05/27 09:03:14;;;;;;;9.10;7.13;;;16.70;99.90;;;;;;5053519;28;20462;-38
2022/05/27 09:06:01;;;;;;;7.00;6.30;;;16.70;99.90;;;;;;5059949;28;20192;-39
2022/05/27 09:08:28;;;;;;;7.13;6.47;;;16.70;99.90;;;;;;5067408;28;20430;-38
2022/05/27 09:11:26;;;;;;;9.33;5.40;;;16.90;99.90;;;;;;5062712;28;20435;-39
2022/05/27 09:14:14;;;;;;;6.53;5.13;;;17.10;99.90;;;;;;5071183;28;20419;-39
2022/05/27 09:16:52;;;;;;;5.60;5.00;;;17.30;99.90;;;;;;5053399;28;20424;-38
2022/05/27 09:19:46;;;;;;;6.60;4.67;;;17.60;99.90;;;;;;5053828;28;21375;-38
2022/05/27 09:22:14;;;;;;;7.63;4.23;;;17.90;99.90;;;;;;5071188;28;20443;-39
2022/05/27 09:25:16;;;;;;;6.10;3.40;;;18.10;99.90;;;;;;5063016;28;20443;-41
2022/05/27 09:27:48;;;;;;;7.03;3.57;;;18.30;99.90;;;;;;5056786;28;20416;-39
2022/05/27 09:30:18;;;;;;;4.57;2.83;;;18.50;99.90;;;;;;5066173;28;20786;-39
2022/05/27 09:33:04;;;;;;;5.27;3.40;;;18.50;99.90;;;;;;5051883;28;20462;-38
2022/05/27 09:35:38;;;;;;;6.43;3.87;;;18.60;99.90;;;;;;5052454;28;20569;-38
2022/05/27 09:38:06;;;;;;;3.77;2.90;;;18.60;99.90;;;;;;5070200;28;20918;-39
2022/05/27 09:40:58;;;;;;;6.63;3.60;;;18.70;99.90;;;;;;5065517;28;20467;-38
2022/05/27 09:43:49;;;;;;;6.83;3.60;;;18.70;99.90;;;;;;5070519;28;21226;-38
2022/05/27 09:46:24;;;;;;;6.70;3.90;;;18.70;99.90;;;;;;5058187;28;20493;-39
2022/05/27 09:48:50;;;;;;;6.90;3.23;;;18.60;99.90;;;;;;5052212;28;20435;-38
2022/05/27 09:51:17;;;;;;;3.80;3.00;;;18.50;99.90;;;;;;5061273;28;20419;-38
2022/05/27 09:53:48;;;;;;;5.73;2.93;;;18.40;99.90;;;;;;5067745;28;20198;-38
2022/05/27 09:56:16;;;;;;;5.33;3.00;;;18.50;99.90;;;;;;5070335;28;20474;-38
2022/05/27 09:58:44;;;;;;;3.60;2.50;;;18.50;99.90;;;;;;5069538;28;20424;-38
2022/05/27 10:01:28;;;;;;;6.17;3.03;;;18.70;99.90;;;;;;5059361;28;20440;-39
2022/05/27 10:04:03;;;;;;;6.73;3.13;;;19.00;99.90;;;;;;5053472;28;20885;-38
2022/05/27 10:06:32;;;;;;;6.67;3.33;;;18.90;99.90;;;;;;5063651;28;20506;-39
2022/05/27 10:09:00;;;;;;;6.10;2.90;;;18.80;99.90;;;;;;5065399;28;20459;-38
2022/05/27 10:11:31;;;;;;;7.47;2.60;;;18.70;99.90;;;;;;5064724;28;20419;-38
2022/05/27 10:14:06;;;;;;;6.83;3.37;;;18.50;99.90;;;;;;5070166;28;20419;-38
2022/05/27 10:16:32;;;;;;;4.40;3.00;;;18.50;99.90;;;;;;5056626;28;20434;-38
2022/05/27 10:19:13;;;;;;;5.53;3.30;;;18.50;99.90;;;;;;5053828;28;20507;-38
2022/05/27 10:22:04;;;;;;;3.87;3.37;;;18.60;99.90;;;;;;5068083;28;20423;-40
2022/05/27 10:24:42;;;;;;;6.10;3.77;;;18.70;99.90;;;;;;5063717;28;20431;-39
2022/05/27 10:27:20;;;;;;;4.53;3.00;;;18.80;99.90;;;;;;5058134;28;21067;-38
2022/05/27 10:29:49;;;;;;;4.60;3.40;;;19.00;99.90;;;;;;5068986;28;20437;-38
2022/05/27 10:32:34;;;;;;;6.00;3.10;;;19.20;99.90;;;;;;5055022;28;20451;-38
2022/05/27 10:35:03;;;;;;;8.57;3.10;;;19.50;99.90;;;;;;5047862;28;20424;-38
2022/05/27 10:37:30;;;;;;;4.80;2.80;;;19.50;99.90;;;;;;5064907;28;20435;-40
2022/05/27 10:40:24;;;;;;;4.97;2.87;;;19.60;99.90;;;;;;5067886;28;20503;-39
2022/05/27 10:43:01;;;;;;;6.23;3.23;;;19.90;99.90;;;;;;5069632;28;20424;-41
2022/05/27 10:45:44;;;;;;;6.33;3.43;;;20.10;99.90;;;;;;5067725;28;20484;-39
2022/05/27 10:48:15;;;;;;;6.83;2.80;;;20.00;99.90;;;;;;5051155;28;20420;-38
2022/05/27 10:50:48;;;;;;;9.53;3.70;;;19.90;98.70;;;;;;5059225;28;20503;-39
2022/05/27 10:53:34;;;;;;;6.50;2.67;;;19.60;98.60;;;;;;5067007;28;20415;-38
2022/05/27 10:56:08;;;;;;;6.80;3.57;;;19.30;98.80;;;;;;5058014;28;20852;-39
2022/05/27 11:02:19;;;;;;;4.80;2.77;;;19.30;99.60;;;;;;5057332;28;20432;-39
2022/05/27 11:05:19;;;;;;;6.27;3.23;;;19.50;99.90;;;;;;5048855;28;20908;-38
2022/05/27 11:08:07;;;;;;;3.20;2.83;;;19.70;98.70;;;;;;5049035;28;20529;-41
2022/05/27 11:10:32;;;;;;;7.80;2.93;;;19.80;98.70;;;;;;5061669;28;20784;-39
2022/05/27 11:16:33;;;;;;;4.23;2.60;;;19.70;98.50;;;;;;5062098;28;20709;-39
2022/05/27 11:19:35;;;;;;;7.10;3.23;;;19.60;98.50;;;;;;5046564;28;20470;-39
2022/05/27 11:22:18;;;;;;;5.27;2.87;;;19.60;97.80;;;;;;5056409;28;20414;-39
2022/05/27 11:25:07;;;;;;;5.70;2.60;;;19.70;98.50;;;;;;5065807;28;20423;-39
2022/05/27 11:28:20;;;;;;;6.50;2.30;;;19.80;99.10;;;;;;5043154;28;20432;-39
2022/05/27 11:31:24;;;;;;;7.80;3.30;;;19.80;96.80;;;;;;5043353;28;20938;-39
2022/05/27 11:34:00;;;;;;;11.10;3.33;;;19.60;97.70;;;;;;5030874;28;20980;-39
2022/05/27 11:36:54;;;;;;;4.80;2.60;;;19.20;96.80;;;;;;5054316;28;20443;-39
2022/05/27 11:39:49;;;;;;;4.60;2.63;;;18.90;97.60;;;;;;5065852;28;20521;-39
2022/05/27 11:42:41;;;;;;;6.77;3.00;;;18.70;97.60;;;;;;5063545;28;20407;-39
2022/05/27 11:45:18;;;;;;;4.17;2.83;;;18.80;97.50;;;;;;5068862;28;20420;-38
2022/05/27 11:48:28;;;;;;;4.53;2.60;;;19.10;98.70;;;;;;5051397;28;20891;-39
2022/05/27 11:51:32;;;;;;;9.13;3.70;;;19.40;98.70;;;;;;5045559;28;20427;-38
2022/05/27 11:54:11;;;;;;;6.10;3.10;;;19.50;96.80;;;;;;5067146;28;20412;-39
2022/05/27 11:57:19;;;;;;;5.83;3.20;;;19.50;97.00;;;;;;5061293;28;20508;-39
2022/05/27 11:59:59;;;;;;;3.37;2.70;;;19.10;95.60;;;;;;5068338;28;20489;-39
2022/05/27 12:02:57;;;;;;;7.80;3.93;;;19.20;96.10;;;;;;5055774;28;20432;-39
2022/05/27 12:05:37;;;;;;;6.63;3.10;;;19.20;97.00;;;;;;5050716;28;20424;-39
2022/05/27 12:08:31;;;;;;;8.00;3.13;;;19.40;97.40;;;;;;5065310;28;21014;-39
2022/05/27 12:10:56;;;;;;;6.03;2.40;;;19.70;95.70;;;;;;5067614;28;20417;-39
2022/05/27 12:13:32;;;;;;;8.03;2.80;;;19.80;95.60;;;;;;5072306;28;20847;-40
2022/05/27 12:16:02;;;;;;;6.83;4.10;;;19.90;96.60;;;;;;5066212;28;20192;-38
2022/05/27 12:18:37;;;;;;;5.77;2.00;;;19.90;94.00;;;;;;5053673;28;20426;-39
2022/05/27 12:21:07;;;;;;;4.63;2.20;;;20.00;92.50;;;;;;5057616;28;20473;-39
2022/05/27 12:23:35;;;;;;;4.20;2.23;;;20.00;93.30;;;;;;5072219;28;20427;-39
2022/05/27 12:26:01;;;;;;;4.27;2.50;;;20.10;93.40;;;;;;5056511;28;20427;-39
2022/05/27 12:28:34;;;;;;;5.90;3.00;;;20.20;93.30;;;;;;5060527;28;20514;-39
2022/05/27 12:31:01;;;;;;;6.00;3.10;;;20.30;92.50;;;;;;5070966;28;20427;-38
2022/05/27 12:33:30;;;;;;;4.80;2.47;;;20.40;93.10;;;;;;5058013;28;20417;-39
2022/05/27 12:36:04;;;;;;;5.10;3.10;;;20.40;92.30;;;;;;5058234;28;20425;-40
2022/05/27 12:38:52;;;;;;;4.87;2.80;;;20.50;92.80;;;;;;5071118;28;20447;-38
2022/05/27 12:41:34;;;;;;;4.23;2.30;;;20.50;91.90;;;;;;5064331;28;20438;-39
2022/05/27 12:44:04;;;;;;;6.00;2.47;;;20.60;92.00;;;;;;5071961;28;20430;-40
2022/05/27 12:46:44;;;;;;;11.03;3.00;;;20.70;92.40;;;;;;5067056;28;20440;-38
2022/05/27 12:49:32;;;;;;;6.23;2.90;;;20.80;93.10;;;;;;5058267;28;20427;-39
2022/05/27 12:51:58;;;;;;;6.20;3.03;;;21.00;94.40;;;;;;5050643;28;20420;-40
2022/05/27 12:54:48;;;;;;;7.30;3.20;;;20.80;93.00;;;;;;5070279;28;20961;-39
2022/05/27 13:00:56;;;;;;;6.67;3.10;;;20.70;93.60;;;;;;5071682;28;20467;-39
2022/05/27 13:03:41;;;;;;;8.13;3.33;;;20.70;94.10;;;;;;5056207;28;20428;-39
2022/05/27 13:06:18;;;;;;;7.07;2.87;;;20.70;93.50;;;;;;5055851;28;20794;-39
2022/05/27 13:08:50;;;;;;;7.17;3.27;;;20.70;92.90;;;;;;5044060;28;20545;-39
2022/05/27 13:11:34;;;;;;;7.43;3.20;;;20.30;91.10;;;;;;5058812;28;20840;-39
2022/05/27 13:14:06;;;;;;;9.57;3.53;;;20.00;91.40;;;;;;5071071;28;20431;-39
2022/05/27 13:16:31;;;;;;;11.97;3.67;;;19.90;92.80;;;;;;5060516;28;20414;-39
2022/05/27 13:19:04;;;;;;;5.93;3.27;;;20.10;93.40;;;;;;5054796;28;20926;-39
2022/05/27 13:21:55;;;;;;;6.40;3.17;;;20.10;91.50;;;;;;5062405;28;20183;-39
2022/05/27 13:24:21;;;;;;;6.43;3.10;;;20.00;91.10;;;;;;5069560;28;20485;-38
2022/05/27 13:26:54;;;;;;;8.33;2.40;;;20.00;91.20;;;;;;5054101;28;20463;-39
2022/05/27 13:29:25;;;;;;;6.17;2.90;;;20.00;90.40;;;;;;5067223;28;20220;-39
2022/05/27 13:32:13;;;;;;;7.53;2.60;;;20.10;88.70;;;;;;5066203;28;20912;-39
2022/05/27 13:35:14;;;;;;;9.50;3.07;;;20.00;89.50;;;;;;5052990;28;20538;-38
2022/05/27 13:37:40;;;;;;;8.20;3.17;;;20.10;90.70;;;;;;5053234;28;20457;-39
2022/05/27 13:40:13;;;;;;;6.30;2.70;;;20.20;90.50;;;;;;5068605;28;20798;-38
2022/05/27 13:42:48;;;;;;;5.30;2.90;;;20.30;90.80;;;;;;5068053;28;20264;-38
2022/05/27 13:45:22;;;;;;;6.20;2.63;;;20.30;90.30;;;;;;5070459;28;20431;-38
2022/05/27 13:48:12;;;;;;;5.33;2.50;;;20.30;88.90;;;;;;5057703;28;20424;-39
2022/05/27 13:50:44;;;;;;;10.77;3.43;;;20.20;88.20;;;;;;5050897;28;20499;-39
2022/05/27 13:53:27;;;;;;;5.37;3.10;;;20.10;89.40;;;;;;5051879;28;20423;-38